Accueil
METAR-TAF:

METAR-TAF

Aéroports :

Elim, Alaska, États-Unis

latitude: 64-36-54N, longitude: 162-16-14W, altitude: 49 m

Observation

Le bulletin a été fait il y a 1 heure et 2 minutes, à 04:56 UTC
Vent 11 kt de nord/nord-est
Température -3°C
Humidité 80%
Pression 985 hPa
Visibilité: 16.1 km
Nuages fragmentés à une hauteur de 2100 ft
Ciel couvert à une hauteur de 8500 ft

METAR: PFEL 080456Z AUTO 02011KT 10SM BKN021 OVC085 M03/M06 A2910 RMK AO2 SLP856 T10281061 FZRANO

Heure: 20:58 (05:58 UTC)


TAF: absent

Observations et prévisions météorologiques de plus de 4000 aéroports (messages METAR et TAF).

Les stations disponibles sont représentées par des disques jaunes et rouges sur la carte.

Passer la souris dessus pour voir le nom de la station.

Cliquer dessus pour voir les observations et prévisions météorologiques.

Pour changer de carte: cliquez sur les boutons verts avec une croix noire pour zoomer, sur le bouton vert avec un tiret pour effectuer un zoom arrière, ou sur les flèches vertes pour les cartes adjacentes.


METAR-TAF: